createdAt,value
2018-10-07T00:01:05.700Z,99.80
2018-10-07T00:03:33.046Z,99.20
2018-10-07T00:06:00.390Z,98.73
2018-10-07T00:08:27.820Z,98.60
2018-10-07T00:10:55.159Z,98.30
2018-10-07T00:13:22.515Z,96.94
2018-10-07T00:15:49.825Z,97.07
2018-10-07T00:18:17.189Z,97.16
2018-10-07T00:20:44.530Z,97.02
2018-10-07T00:23:11.911Z,96.34
2018-10-07T00:25:39.261Z,97.43
2018-10-07T00:28:06.622Z,98.92
2018-10-07T00:30:34.185Z,98.63
2018-10-07T00:33:01.462Z,98.33
2018-10-07T00:35:28.838Z,97.82
2018-10-07T00:37:56.198Z,97.94
2018-10-07T00:40:23.570Z,98.17
2018-10-07T00:42:50.916Z,98.29
2018-10-07T00:45:18.264Z,97.92
2018-10-07T00:47:45.635Z,97.90
2018-10-07T00:50:13.081Z,96.86
2018-10-07T00:52:40.470Z,96.21
2018-10-07T00:55:07.773Z,95.44
2018-10-07T00:57:35.083Z,96.15
2018-10-07T01:00:02.397Z,96.24
2018-10-07T01:02:29.734Z,96.72
2018-10-07T01:04:57.021Z,96.93
2018-10-07T01:07:24.457Z,96.71
2018-10-07T01:09:51.781Z,97.08
2018-10-07T01:12:19.081Z,96.55
2018-10-07T01:14:46.440Z,95.41
2018-10-07T01:17:13.816Z,94.73
2018-10-07T01:19:41.213Z,94.91
2018-10-07T01:22:08.585Z,95.63
2018-10-07T01:24:35.853Z,97.00
2018-10-07T01:27:03.249Z,96.39
2018-10-07T01:29:30.629Z,97.09
2018-10-07T01:31:57.950Z,98.04
2018-10-07T01:34:25.318Z,97.70
2018-10-07T01:36:52.681Z,97.89
2018-10-07T01:39:20.030Z,98.36
2018-10-07T01:41:47.286Z,98.25
2018-10-07T01:44:14.614Z,98.68
2018-10-07T01:46:42.027Z,98.71
2018-10-07T01:49:09.339Z,98.02
2018-10-07T01:51:36.708Z,97.51
2018-10-07T01:54:04.053Z,97.11
2018-10-07T01:56:31.459Z,96.86
2018-10-07T01:58:58.756Z,97.06
2018-10-07T02:01:26.090Z,97.18
2018-10-07T02:03:53.400Z,97.70
2018-10-07T02:06:20.709Z,97.38
2018-10-07T02:08:48.038Z,97.65
2018-10-07T02:11:15.313Z,98.02
2018-10-07T02:13:42.586Z,98.46
2018-10-07T02:16:09.834Z,98.85
2018-10-07T02:18:37.188Z,98.88
2018-10-07T02:21:04.525Z,97.52
2018-10-07T02:23:31.849Z,97.21
2018-10-07T02:25:59.190Z,97.36
2018-10-07T02:28:26.487Z,96.19
2018-10-07T02:30:53.821Z,97.31
2018-10-07T02:33:21.189Z,97.58
2018-10-07T02:35:48.558Z,97.33
2018-10-07T02:38:15.944Z,97.54
2018-10-07T02:40:43.326Z,97.47
2018-10-07T02:43:11.190Z,97.33
2018-10-07T02:45:38.927Z,97.86
2018-10-07T02:48:06.246Z,99.28
2018-10-07T02:50:33.580Z,100.00
2018-10-07T02:53:01.166Z,100.00
2018-10-07T02:55:32.146Z,100.00
2018-10-07T02:58:00.409Z,99.23
2018-10-07T03:00:27.789Z,98.85
2018-10-07T03:02:55.145Z,98.62
2018-10-07T03:05:22.517Z,98.18
2018-10-07T03:07:49.808Z,97.92
2018-10-07T03:10:17.162Z,97.83
2018-10-07T03:12:44.503Z,96.69
2018-10-07T03:15:12.193Z,96.72
2018-10-07T03:17:39.510Z,96.64
2018-10-07T03:20:07.289Z,97.00
2018-10-07T03:22:34.639Z,95.70
2018-10-07T03:25:02.002Z,96.54
2018-10-07T03:27:29.353Z,96.95
2018-10-07T03:29:56.716Z,97.31
2018-10-07T03:32:24.119Z,97.25
2018-10-07T03:34:51.477Z,97.22
2018-10-07T03:37:18.842Z,97.49
2018-10-07T03:39:46.232Z,99.35
2018-10-07T03:42:15.239Z,99.14
2018-10-07T03:44:42.550Z,99.63
2018-10-07T03:47:10.003Z,98.77
2018-10-07T03:49:37.603Z,98.84
2018-10-07T03:52:04.992Z,98.44
2018-10-07T03:54:32.421Z,99.00
2018-10-07T03:57:00.490Z,97.95
2018-10-07T03:59:27.837Z,98.13
2018-10-07T04:01:56.163Z,98.28
2018-10-07T04:04:23.439Z,99.03
2018-10-07T04:06:50.830Z,97.23
2018-10-07T04:09:18.145Z,96.01
2018-10-07T04:11:45.504Z,96.47
2018-10-07T04:14:13.408Z,96.90
2018-10-07T04:16:40.841Z,98.29
2018-10-07T04:19:09.202Z,99.39
2018-10-07T04:21:36.531Z,99.40
2018-10-07T04:24:04.260Z,100.00
2018-10-07T04:26:31.995Z,100.00
2018-10-07T04:28:59.625Z,100.00
2018-10-07T04:31:27.039Z,100.00
2018-10-07T04:33:54.433Z,100.00
2018-10-07T04:36:21.839Z,100.00
2018-10-07T04:38:49.220Z,100.00
2018-10-07T04:41:16.640Z,100.00
2018-10-07T04:43:43.954Z,100.00
2018-10-07T04:46:11.426Z,100.00
2018-10-07T04:48:38.659Z,100.00
2018-10-07T04:51:06.199Z,100.00
2018-10-07T04:53:33.509Z,100.00
2018-10-07T04:56:00.865Z,100.00
2018-10-07T04:58:28.197Z,100.00
2018-10-07T05:00:55.606Z,100.00
2018-10-07T05:03:22.929Z,100.00
2018-10-07T05:05:50.411Z,100.00
2018-10-07T05:08:17.835Z,100.00
2018-10-07T05:11:03.758Z,100.00
2018-10-07T05:13:44.251Z,100.00
2018-10-07T05:16:14.365Z,100.00
2018-10-07T05:18:42.573Z,100.00
2018-10-07T05:21:10.006Z,100.00
2018-10-07T05:23:37.315Z,100.00
2018-10-07T05:26:04.646Z,100.00
2018-10-07T05:28:31.962Z,100.00
2018-10-07T05:30:59.257Z,100.00
2018-10-07T05:33:26.582Z,100.00
2018-10-07T05:35:53.913Z,100.00
2018-10-07T05:38:21.199Z,100.00
2018-10-07T05:40:48.551Z,100.00
2018-10-07T05:43:16.109Z,100.00
2018-10-07T05:45:43.473Z,100.00
2018-10-07T05:48:10.805Z,100.00
2018-10-07T05:50:38.121Z,100.00
2018-10-07T05:53:05.557Z,100.00
2018-10-07T05:55:32.938Z,100.00
2018-10-07T05:58:03.782Z,100.00
2018-10-07T06:00:32.331Z,100.00
2018-10-07T06:03:03.426Z,100.00
2018-10-07T06:05:30.914Z,100.00
2018-10-07T06:07:58.195Z,100.00
2018-10-07T06:10:25.527Z,100.00
2018-10-07T06:12:52.898Z,100.00
2018-10-07T06:15:33.318Z,100.00
2018-10-07T06:18:00.606Z,100.00
2018-10-07T06:20:28.689Z,100.00
2018-10-07T06:22:56.584Z,100.00
2018-10-07T06:25:24.074Z,100.00
2018-10-07T06:27:51.540Z,100.00
2018-10-07T06:30:18.905Z,100.00
2018-10-07T06:32:46.221Z,100.00
2018-10-07T06:35:13.582Z,100.00
2018-10-07T06:37:40.867Z,100.00
2018-10-07T06:40:08.229Z,100.00
2018-10-07T06:42:35.612Z,99.19
2018-10-07T06:45:02.941Z,97.86
2018-10-07T06:47:30.287Z,96.95
2018-10-07T06:49:57.627Z,97.42
2018-10-07T06:52:24.961Z,97.73
2018-10-07T06:54:52.320Z,97.36
2018-10-07T06:57:19.760Z,97.97
2018-10-07T06:59:47.064Z,98.56
2018-10-07T07:02:14.621Z,98.81
2018-10-07T07:04:41.969Z,99.49
2018-10-07T07:07:09.269Z,99.98
2018-10-07T07:09:36.608Z,100.00
2018-10-07T07:12:03.923Z,100.00
2018-10-07T07:14:31.357Z,99.87
2018-10-07T07:16:58.651Z,96.55
2018-10-07T07:19:26.014Z,95.18
2018-10-07T07:21:53.334Z,94.63
2018-10-07T07:24:20.653Z,93.12
2018-10-07T07:26:48.060Z,92.47
2018-10-07T07:29:15.462Z,91.42
2018-10-07T07:31:42.817Z,90.92
2018-10-07T07:34:10.090Z,90.09
2018-10-07T07:36:37.414Z,90.29
2018-10-07T07:39:05.630Z,89.79
2018-10-07T07:41:32.893Z,90.09
2018-10-07T07:44:00.170Z,90.28
2018-10-07T07:46:27.480Z,90.66
2018-10-07T07:48:54.811Z,90.47
2018-10-07T07:51:22.228Z,89.95
2018-10-07T07:53:49.625Z,88.92
2018-10-07T07:56:17.426Z,90.48
2018-10-07T07:58:44.763Z,91.87
2018-10-07T08:01:12.099Z,91.14
2018-10-07T08:03:39.386Z,91.17
2018-10-07T08:06:06.743Z,91.48
2018-10-07T08:08:34.137Z,91.56
2018-10-07T08:11:01.552Z,91.29
2018-10-07T08:13:28.899Z,91.21
2018-10-07T08:15:56.158Z,92.07
2018-10-07T08:18:23.513Z,90.62
2018-10-07T08:20:50.841Z,92.05
2018-10-07T08:23:19.923Z,91.36
2018-10-07T08:25:47.249Z,92.54
2018-10-07T08:28:14.607Z,91.66
2018-10-07T08:30:41.961Z,91.64
2018-10-07T08:33:09.313Z,91.28
2018-10-07T08:35:36.662Z,92.61
2018-10-07T08:38:03.990Z,90.68
2018-10-07T08:40:31.322Z,89.72
2018-10-07T08:42:58.742Z,89.44
2018-10-07T08:45:26.106Z,89.09
2018-10-07T08:47:53.514Z,89.34
2018-10-07T08:50:20.907Z,89.30
2018-10-07T08:52:48.341Z,87.90
2018-10-07T08:55:15.658Z,87.70
2018-10-07T08:57:42.995Z,87.85
2018-10-07T09:00:10.737Z,86.77
2018-10-07T09:02:38.179Z,85.68
2018-10-07T09:05:06.381Z,85.17
2018-10-07T09:07:33.692Z,82.63
2018-10-07T09:10:01.022Z,81.45
2018-10-07T09:12:28.379Z,81.85
2018-10-07T09:14:56.275Z,81.83
2018-10-07T09:17:25.233Z,82.06
2018-10-07T09:19:52.639Z,80.03
2018-10-07T09:22:20.030Z,80.10
2018-10-07T09:24:47.370Z,79.86
2018-10-07T09:27:14.721Z,79.61
2018-10-07T09:29:42.135Z,77.58
2018-10-07T09:32:09.505Z,77.81
2018-10-07T09:34:36.910Z,78.45
2018-10-07T09:37:04.765Z,77.32
2018-10-07T09:39:32.199Z,77.13
2018-10-07T09:41:59.470Z,75.78
2018-10-07T09:44:26.798Z,74.61
2018-10-07T09:46:54.499Z,75.08
2018-10-07T09:49:21.962Z,76.07
2018-10-07T09:51:49.289Z,75.39
2018-10-07T09:54:16.644Z,74.44
2018-10-07T09:56:44.029Z,74.25
2018-10-07T09:59:11.540Z,74.61
2018-10-07T10:01:39.029Z,74.47
2018-10-07T10:04:06.676Z,73.78
2018-10-07T10:06:34.070Z,74.27
2018-10-07T10:09:01.413Z,72.98
2018-10-07T10:11:30.522Z,73.18
2018-10-07T10:13:57.865Z,73.88
2018-10-07T10:16:49.722Z,72.47
2018-10-07T10:19:21.160Z,72.44
2018-10-07T10:21:51.701Z,71.71
2018-10-07T10:26:39.344Z,70.53
2018-10-07T10:29:17.966Z,71.91
2018-10-07T10:31:52.498Z,71.11
2018-10-07T10:35:01.913Z,73.19
2018-10-07T10:40:00.176Z,72.85
2018-10-07T10:42:48.754Z,70.56
2018-10-07T10:45:24.765Z,70.15
2018-10-07T10:47:55.375Z,68.03
2018-10-07T10:50:31.980Z,68.43
2018-10-07T10:53:07.632Z,67.68
2018-10-07T10:56:18.660Z,68.29
2018-10-07T10:59:06.434Z,68.27
2018-10-07T11:03:16.341Z,69.04
2018-10-07T11:05:53.923Z,67.50
2018-10-07T11:08:35.122Z,67.32
2018-10-07T11:11:07.539Z,68.04
2018-10-07T11:13:38.137Z,67.10
2018-10-07T11:16:26.271Z,66.16
2018-10-07T11:18:57.872Z,65.51
2018-10-07T11:23:40.402Z,64.12
2018-10-07T11:27:19.673Z,63.79
2018-10-07T11:32:02.558Z,62.04
2018-10-07T11:34:52.834Z,60.90
2018-10-07T11:38:08.659Z,58.85
2018-10-07T11:40:43.733Z,58.39
2018-10-07T11:43:35.094Z,57.93
2018-10-07T11:46:15.246Z,57.14
2018-10-07T11:48:49.037Z,56.11
2018-10-07T11:53:27.863Z,55.01
2018-10-07T11:55:55.274Z,54.24
2018-10-07T11:58:22.666Z,53.36
2018-10-07T12:00:49.964Z,52.25
2018-10-07T12:03:17.470Z,51.50
2018-10-07T12:05:44.832Z,52.23
2018-10-07T12:08:12.254Z,53.90
2018-10-07T12:10:40.221Z,54.13
2018-10-07T12:13:07.757Z,56.39
2018-10-07T12:15:35.178Z,56.65
2018-10-07T12:18:03.751Z,56.14
2018-10-07T12:20:31.251Z,55.87
2018-10-07T12:22:58.743Z,53.01
2018-10-07T12:25:26.243Z,52.30
2018-10-07T12:27:53.667Z,51.01
2018-10-07T12:30:21.192Z,51.17
2018-10-07T12:32:48.785Z,49.83
2018-10-07T12:35:16.256Z,49.76
2018-10-07T12:37:43.760Z,49.29
2018-10-07T12:40:11.290Z,48.15
2018-10-07T12:42:38.798Z,47.47
2018-10-07T12:45:06.350Z,48.80
2018-10-07T12:47:33.884Z,50.03
2018-10-07T12:50:01.666Z,51.12
2018-10-07T12:52:29.194Z,50.99
2018-10-07T12:54:56.980Z,54.56
2018-10-07T12:57:24.494Z,56.84
2018-10-07T12:59:51.938Z,59.45
2018-10-07T13:02:21.264Z,61.27
2018-10-07T13:04:49.136Z,62.48
2018-10-07T13:07:16.745Z,63.66
2018-10-07T13:09:44.330Z,64.28
2018-10-07T13:12:11.953Z,63.57
2018-10-07T13:14:39.444Z,64.42
2018-10-07T13:17:07.554Z,65.21
2018-10-07T13:19:35.159Z,65.36
2018-10-07T13:22:02.826Z,65.26
2018-10-07T13:24:30.438Z,62.03
2018-10-07T13:26:58.157Z,60.44
2018-10-07T13:29:25.928Z,60.17
2018-10-07T13:31:53.618Z,63.13
2018-10-07T13:34:21.099Z,65.05
2018-10-07T13:36:48.640Z,66.60
2018-10-07T13:39:16.198Z,66.94
2018-10-07T13:41:43.927Z,66.95
2018-10-07T13:44:11.477Z,63.15
2018-10-07T13:46:39.007Z,61.20
2018-10-07T13:49:06.684Z,61.21
2018-10-07T13:51:34.279Z,60.58
2018-10-07T13:54:01.831Z,60.67
2018-10-07T13:56:29.559Z,59.66
2018-10-07T13:58:57.222Z,59.76
2018-10-07T14:01:25.023Z,58.91
2018-10-07T14:03:52.672Z,59.28
2018-10-07T14:06:20.356Z,58.50
2018-10-07T14:08:47.938Z,58.74
2018-10-07T14:11:15.647Z,59.13
2018-10-07T14:13:43.057Z,59.21
2018-10-07T14:16:10.471Z,59.37
2018-10-07T14:18:37.858Z,59.66
2018-10-07T14:21:05.229Z,61.05
2018-10-07T14:23:32.628Z,60.60
2018-10-07T14:26:00.020Z,61.20
2018-10-07T14:28:27.404Z,62.04
2018-10-07T14:30:54.740Z,61.05
2018-10-07T14:33:22.297Z,62.58
2018-10-07T14:35:49.621Z,63.04
2018-10-07T14:38:17.813Z,62.24
2018-10-07T14:40:45.415Z,62.80
2018-10-07T14:43:13.440Z,63.73
2018-10-07T14:45:41.044Z,64.35
2018-10-07T14:48:08.420Z,64.08
2018-10-07T14:50:35.813Z,63.47
2018-10-07T14:53:03.166Z,64.42
2018-10-07T14:57:57.342Z,64.36
2018-10-07T15:00:24.739Z,64.31
2018-10-07T15:02:52.764Z,64.92
2018-10-07T15:05:20.150Z,63.51
2018-10-07T15:07:47.507Z,65.79
2018-10-07T15:10:14.866Z,66.43
2018-10-07T15:12:42.667Z,66.78
2018-10-07T15:15:10.102Z,68.90
2018-10-07T15:17:37.586Z,70.55
2018-10-07T15:20:05.788Z,70.70
2018-10-07T15:22:33.149Z,71.22
2018-10-07T15:25:00.519Z,71.66
2018-10-07T15:27:27.885Z,72.32
2018-10-07T15:29:55.394Z,72.58
2018-10-07T15:32:22.686Z,73.15
2018-10-07T15:34:50.053Z,74.10
2018-10-07T15:37:17.469Z,74.17
2018-10-07T15:39:44.901Z,74.73
2018-10-07T15:42:12.281Z,75.25
2018-10-07T15:44:39.910Z,75.66
2018-10-07T15:47:07.296Z,76.44
2018-10-07T15:49:34.646Z,76.35
2018-10-07T15:52:02.082Z,76.81
2018-10-07T15:54:29.475Z,77.24
2018-10-07T15:56:56.878Z,77.85
2018-10-07T15:59:24.273Z,78.37
2018-10-07T16:01:51.617Z,78.74
2018-10-07T16:04:19.393Z,79.58
2018-10-07T16:06:47.061Z,80.20
2018-10-07T16:09:14.432Z,80.40
2018-10-07T16:11:42.388Z,80.72
2018-10-07T16:14:09.773Z,81.36
2018-10-07T16:16:37.128Z,81.13
2018-10-07T16:19:04.540Z,81.78
2018-10-07T16:21:32.112Z,82.54
2018-10-07T16:23:59.567Z,83.53
2018-10-07T16:26:27.084Z,82.75
2018-10-07T16:28:54.356Z,82.61
2018-10-07T16:31:22.621Z,83.77
2018-10-07T16:33:49.953Z,83.35
2018-10-07T16:36:17.534Z,82.89
2018-10-07T16:38:45.038Z,84.42
2018-10-07T16:41:13.221Z,84.97
2018-10-07T16:43:40.558Z,85.32
2018-10-07T16:46:07.938Z,85.17
2018-10-07T16:48:35.399Z,85.52
2018-10-07T16:51:02.939Z,85.17
2018-10-07T16:53:30.317Z,85.19
2018-10-07T16:55:57.773Z,85.72
2018-10-07T16:58:25.167Z,86.30
2018-10-07T17:00:52.604Z,86.04
2018-10-07T17:03:19.952Z,86.46
2018-10-07T17:05:47.451Z,86.24
2018-10-07T17:08:14.843Z,86.61
2018-10-07T17:10:42.540Z,86.67
2018-10-07T17:13:10.217Z,86.53
2018-10-07T17:15:37.497Z,86.47
2018-10-07T17:18:04.842Z,86.68
2018-10-07T17:20:32.201Z,86.56
2018-10-07T17:23:00.963Z,86.85
2018-10-07T17:25:29.118Z,86.02
2018-10-07T17:27:56.803Z,85.83
2018-10-07T17:30:24.581Z,86.62
2018-10-07T17:32:52.385Z,88.52
2018-10-07T17:35:20.129Z,90.73
2018-10-07T17:37:48.660Z,90.30
2018-10-07T17:40:16.334Z,89.17
2018-10-07T17:42:44.048Z,88.30
2018-10-07T17:45:11.850Z,87.34
2018-10-07T17:47:39.834Z,87.91
2018-10-07T17:50:07.959Z,88.49
2018-10-07T17:52:35.789Z,88.02
2018-10-07T17:55:04.277Z,89.37
2018-10-07T17:57:31.958Z,91.95
2018-10-07T17:59:59.602Z,92.28
2018-10-07T18:02:27.357Z,90.41
2018-10-07T18:04:54.988Z,89.86
2018-10-07T18:07:22.822Z,88.67
2018-10-07T18:09:50.550Z,88.67
2018-10-07T18:12:18.355Z,88.72
2018-10-07T18:14:46.214Z,90.57
2018-10-07T18:17:13.953Z,90.01
2018-10-07T18:19:41.744Z,89.62
2018-10-07T18:22:09.479Z,89.21
2018-10-07T18:24:37.147Z,89.27
2018-10-07T18:27:04.706Z,89.61
2018-10-07T18:29:32.673Z,90.28
2018-10-07T18:32:00.319Z,91.86
2018-10-07T18:34:28.109Z,91.90
2018-10-07T18:36:55.749Z,92.76
2018-10-07T18:39:23.449Z,92.81
2018-10-07T18:41:51.123Z,93.28
2018-10-07T18:44:18.850Z,92.77
2018-10-07T18:46:46.527Z,92.72
2018-10-07T18:49:14.222Z,93.32
2018-10-07T18:51:41.907Z,93.95
2018-10-07T18:54:09.569Z,93.25
2018-10-07T18:56:37.145Z,94.07
2018-10-07T18:59:04.815Z,93.82
2018-10-07T19:01:32.439Z,94.17
2018-10-07T19:04:00.019Z,94.00
2018-10-07T19:06:27.529Z,93.87
2018-10-07T19:08:55.229Z,93.81
2018-10-07T19:11:23.011Z,93.87
2018-10-07T19:13:50.586Z,93.19
2018-10-07T19:16:18.136Z,92.13
2018-10-07T19:18:45.826Z,91.98
2018-10-07T19:21:13.434Z,92.35
2018-10-07T19:23:41.006Z,92.15
2018-10-07T19:26:08.638Z,91.84
2018-10-07T19:28:36.198Z,92.93
2018-10-07T19:31:03.714Z,92.87
2018-10-07T19:33:31.297Z,92.38
2018-10-07T19:36:00.144Z,92.31
2018-10-07T19:38:29.884Z,92.89
2018-10-07T19:40:57.915Z,92.73
2018-10-07T19:43:25.518Z,92.83
2018-10-07T19:45:53.104Z,93.34
2018-10-07T19:48:20.642Z,93.31
2018-10-07T19:50:48.514Z,93.92
2018-10-07T19:53:16.099Z,93.76
2018-10-07T19:55:43.761Z,93.59
2018-10-07T19:58:12.144Z,93.84
2018-10-07T20:00:39.835Z,93.58
2018-10-07T20:03:07.469Z,93.89
2018-10-07T20:05:34.929Z,94.25
2018-10-07T20:08:02.679Z,93.43
2018-10-07T20:10:30.146Z,93.19
2018-10-07T20:12:57.707Z,93.12
2018-10-07T20:15:25.347Z,92.72
2018-10-07T20:17:52.962Z,92.15
2018-10-07T20:20:20.658Z,91.72
2018-10-07T20:22:48.397Z,92.14
2018-10-07T20:25:16.064Z,91.82
2018-10-07T20:27:43.660Z,91.69
2018-10-07T20:30:11.269Z,90.88
2018-10-07T20:32:38.845Z,91.76
2018-10-07T20:35:06.655Z,93.55
2018-10-07T20:37:34.373Z,95.03
2018-10-07T20:40:02.003Z,94.50
2018-10-07T20:42:29.639Z,94.83
2018-10-07T20:44:57.129Z,95.29
2018-10-07T20:47:24.647Z,95.06
2018-10-07T20:49:52.207Z,93.67
2018-10-07T20:52:19.822Z,93.18
2018-10-07T20:54:47.511Z,93.59
2018-10-07T20:57:15.065Z,93.92
2018-10-07T20:59:42.657Z,93.58
2018-10-07T21:02:10.317Z,93.50
2018-10-07T21:04:37.948Z,95.42
2018-10-07T21:07:05.681Z,99.14
2018-10-07T21:09:33.352Z,99.82
2018-10-07T21:12:01.072Z,98.07
2018-10-07T21:14:28.663Z,97.00
2018-10-07T21:16:56.360Z,96.37
2018-10-07T21:19:23.821Z,95.97
2018-10-07T21:21:51.338Z,96.20
2018-10-07T21:24:19.279Z,96.31
2018-10-07T21:26:46.836Z,95.97
2018-10-07T21:29:14.503Z,95.44
2018-10-07T21:31:45.791Z,95.69
2018-10-07T21:34:13.310Z,95.59
2018-10-07T21:36:42.915Z,95.16
2018-10-07T21:39:11.051Z,95.07
2018-10-07T21:41:38.656Z,95.03
2018-10-07T21:44:06.529Z,96.38
2018-10-07T21:46:34.527Z,96.38
2018-10-07T21:49:01.921Z,95.63
2018-10-07T21:51:29.531Z,95.52
2018-10-07T21:53:57.010Z,95.42
2018-10-07T21:56:24.624Z,95.54
2018-10-07T21:58:52.335Z,95.53
2018-10-07T22:01:19.970Z,96.34
2018-10-07T22:03:47.561Z,95.75
2018-10-07T22:06:15.107Z,96.29
2018-10-07T22:08:42.810Z,96.84
2018-10-07T22:11:10.495Z,96.03
2018-10-07T22:13:38.043Z,96.05
2018-10-07T22:16:05.641Z,96.36
2018-10-07T22:18:33.190Z,95.88
2018-10-07T22:21:00.900Z,96.40
2018-10-07T22:23:28.541Z,95.89
2018-10-07T22:25:56.024Z,95.66
2018-10-07T22:28:23.469Z,96.57
2018-10-07T22:30:52.307Z,96.25
2018-10-07T22:33:19.782Z,96.33
2018-10-07T22:35:47.334Z,96.19
2018-10-07T22:38:14.852Z,96.38
2018-10-07T22:40:42.406Z,96.19
2018-10-07T22:43:09.926Z,95.93
2018-10-07T22:45:37.409Z,95.85
2018-10-07T22:48:04.969Z,96.06
2018-10-07T22:50:32.458Z,95.88
2018-10-07T22:52:59.905Z,96.05
2018-10-07T22:55:27.471Z,96.68
2018-10-07T22:57:54.980Z,97.52
2018-10-07T23:00:22.529Z,98.22
2018-10-07T23:02:50.239Z,97.51
2018-10-07T23:05:17.739Z,97.36
2018-10-07T23:07:45.308Z,96.71
2018-10-07T23:10:12.846Z,96.04
2018-10-07T23:12:40.418Z,95.73
2018-10-07T23:15:07.969Z,95.57
2018-10-07T23:17:35.572Z,95.26
2018-10-07T23:20:03.879Z,95.24
2018-10-07T23:22:31.513Z,94.82
2018-10-07T23:24:59.021Z,94.66
2018-10-07T23:27:26.630Z,96.66
2018-10-07T23:29:53.900Z,98.20
2018-10-07T23:32:21.253Z,98.74
2018-10-07T23:34:48.524Z,98.48
2018-10-07T23:37:15.813Z,97.98
2018-10-07T23:39:43.132Z,98.04
2018-10-07T23:42:10.447Z,97.70
2018-10-07T23:44:37.767Z,95.89
2018-10-07T23:47:05.072Z,96.09
2018-10-07T23:49:32.390Z,95.92
2018-10-07T23:51:59.728Z,96.22
2018-10-07T23:54:26.978Z,97.48
2018-10-07T23:56:54.325Z,96.97
2018-10-07T23:59:21.735Z,96.16
